Stockton, New Jersey
Current Conditions -  °F | °C
As of 4:54 AM on Friday 24 Oct 2014 (Local Time) from KDYL Reporting Station
Overcast Overcast  
Wind Chill: 11°   Ceiling: 2500
Heat Index: 11°   Visibility: 10mi
Dew Point:   Wind: 9mph
Humidity: 77%   Direction: 320°NW
Pressure: 29.83"   Gusts: 21mph
Location:  40.41°N, 74.98°W
Report Text: KDYL 240854Z AUTO 32008G18KT 10SM OVC025 11/07 A2983 RMK AO2 SLP103 T01110072 53008 $
Loading
Personal Weather Stations






























Interactive Weather Map
Tropical Storm Tracking
New forecast layout! Learn more

10-Day Weather Forecast

Advertisements
Track Severe Weather on mobile